Terminal Aerodrome Forecast
Issued by NWS

Home | Current Version | Previous Version | Text Only | Print | Product List | Glossary On
Versions: 1 2 3 4 5 6 7 8 9 10 11 12 13 14
000
FTUS46 KMTR 190500
TAFSNS
TAF
KSNS 190534Z 1906/2006 00000KT P6SM FEW035
     FM191000 12008KT P6SM BKN030
     FM191400 12012KT P6SM -SHRA BKN035
     FM192200 14007KT P6SM -SHRA FEW020 SCT040 BKN050
     FM200200 10005KT P6SM -SHRA SCT035 BKN050=

USA.gov is the U.S. government's official web portal to all federal, state and local government web resources and services.